sensor_id;sensor_type;location;lat;lon;timestamp;temperature;humidity
80412;SHT30;69749;42.684;23.360;2024-02-16T00:00:24;6.25;55.52
80412;SHT30;69749;42.684;23.360;2024-02-16T00:02:49;6.22;55.55
80412;SHT30;69749;42.684;23.360;2024-02-16T00:05:15;6.24;55.87
80412;SHT30;69749;42.684;23.360;2024-02-16T00:07:41;6.27;55.88
80412;SHT30;69749;42.684;23.360;2024-02-16T00:10:07;6.32;55.74
80412;SHT30;69749;42.684;23.360;2024-02-16T00:12:34;6.25;55.88
80412;SHT30;69749;42.684;23.360;2024-02-16T00:15:00;6.28;55.82
80412;SHT30;69749;42.684;23.360;2024-02-16T00:17:26;6.17;56.26
80412;SHT30;69749;42.684;23.360;2024-02-16T00:19:55;6.04;56.49
80412;SHT30;69749;42.684;23.360;2024-02-16T00:22:21;5.96;56.95
80412;SHT30;69749;42.684;23.360;2024-02-16T00:24:47;5.91;57.03
80412;SHT30;69749;42.684;23.360;2024-02-16T00:27:13;5.83;57.34
80412;SHT30;69749;42.684;23.360;2024-02-16T00:29:39;5.86;57.23
80412;SHT30;69749;42.684;23.360;2024-02-16T00:32:05;5.85;57.20
80412;SHT30;69749;42.684;23.360;2024-02-16T00:34:35;5.86;57.35
80412;SHT30;69749;42.684;23.360;2024-02-16T00:37:01;5.89;56.88
80412;SHT30;69749;42.684;23.360;2024-02-16T00:39:27;5.85;57.18
80412;SHT30;69749;42.684;23.360;2024-02-16T00:41:53;5.91;56.77
80412;SHT30;69749;42.684;23.360;2024-02-16T00:44:18;5.91;56.78
80412;SHT30;69749;42.684;23.360;2024-02-16T00:46:44;5.93;56.80
80412;SHT30;69749;42.684;23.360;2024-02-16T00:49:10;6.03;56.51
80412;SHT30;69749;42.684;23.360;2024-02-16T00:51:39;6.03;56.14
80412;SHT30;69749;42.684;23.360;2024-02-16T00:54:05;6.04;56.28
80412;SHT30;69749;42.684;23.360;2024-02-16T00:56:34;6.00;56.20
80412;SHT30;69749;42.684;23.360;2024-02-16T00:58:59;6.03;56.15
80412;SHT30;69749;42.684;23.360;2024-02-16T01:01:25;6.06;56.14
80412;SHT30;69749;42.684;23.360;2024-02-16T01:03:54;5.83;56.44
80412;SHT30;69749;42.684;23.360;2024-02-16T01:06:20;5.67;56.99
80412;SHT30;69749;42.684;23.360;2024-02-16T01:08:46;5.38;58.03
80412;SHT30;69749;42.684;23.360;2024-02-16T01:11:14;5.63;57.40
80412;SHT30;69749;42.684;23.360;2024-02-16T01:13:40;5.81;56.77
80412;SHT30;69749;42.684;23.360;2024-02-16T01:16:05;5.81;56.59
80412;SHT30;69749;42.684;23.360;2024-02-16T01:18:31;5.65;57.21
80412;SHT30;69749;42.684;23.360;2024-02-16T01:20:58;5.66;57.06
80412;SHT30;69749;42.684;23.360;2024-02-16T01:23:24;5.59;57.23
80412;SHT30;69749;42.684;23.360;2024-02-16T01:25:49;5.53;57.46
80412;SHT30;69749;42.684;23.360;2024-02-16T01:28:15;5.63;57.42
80412;SHT30;69749;42.684;23.360;2024-02-16T01:30:41;5.67;57.36
80412;SHT30;69749;42.684;23.360;2024-02-16T01:33:06;5.72;57.21
80412;SHT30;69749;42.684;23.360;2024-02-16T01:35:33;5.74;56.90
80412;SHT30;69749;42.684;23.360;2024-02-16T01:37:58;5.80;56.88
80412;SHT30;69749;42.684;23.360;2024-02-16T01:40:25;5.89;56.66
80412;SHT30;69749;42.684;23.360;2024-02-16T01:42:52;5.87;56.87
80412;SHT30;69749;42.684;23.360;2024-02-16T01:45:20;5.93;56.73
80412;SHT30;69749;42.684;23.360;2024-02-16T01:47:48;5.96;56.66
80412;SHT30;69749;42.684;23.360;2024-02-16T01:50:15;5.91;56.43
80412;SHT30;69749;42.684;23.360;2024-02-16T01:52:41;5.91;56.55
80412;SHT30;69749;42.684;23.360;2024-02-16T01:55:07;5.87;56.61
80412;SHT30;69749;42.684;23.360;2024-02-16T01:57:35;5.73;57.21
80412;SHT30;69749;42.684;23.360;2024-02-16T02:00:01;5.83;57.08
80412;SHT30;69749;42.684;23.360;2024-02-16T02:02:26;5.81;56.90
80412;SHT30;69749;42.684;23.360;2024-02-16T02:04:52;5.73;56.87
80412;SHT30;69749;42.684;23.360;2024-02-16T02:07:18;5.63;57.35
80412;SHT30;69749;42.684;23.360;2024-02-16T02:09:44;5.72;57.31
80412;SHT30;69749;42.684;23.360;2024-02-16T02:12:09;5.80;57.15
80412;SHT30;69749;42.684;23.360;2024-02-16T02:14:36;5.77;57.08
80412;SHT30;69749;42.684;23.360;2024-02-16T02:17:02;5.80;56.96
80412;SHT30;69749;42.684;23.360;2024-02-16T02:19:29;5.83;56.93
80412;SHT30;69749;42.684;23.360;2024-02-16T02:21:55;5.79;57.10
80412;SHT30;69749;42.684;23.360;2024-02-16T02:24:20;5.83;57.22
80412;SHT30;69749;42.684;23.360;2024-02-16T02:26:46;5.69;57.32
80412;SHT30;69749;42.684;23.360;2024-02-16T02:29:12;5.69;57.60
80412;SHT30;69749;42.684;23.360;2024-02-16T02:31:37;5.62;57.94
80412;SHT30;69749;42.684;23.360;2024-02-16T02:34:03;5.60;57.92
80412;SHT30;69749;42.684;23.360;2024-02-16T02:36:31;5.56;57.95
80412;SHT30;69749;42.684;23.360;2024-02-16T02:38:58;5.59;57.89
80412;SHT30;69749;42.684;23.360;2024-02-16T02:41:24;5.52;57.98
80412;SHT30;69749;42.684;23.360;2024-02-16T02:43:49;5.35;58.32
80412;SHT30;69749;42.684;23.360;2024-02-16T02:46:16;5.35;58.50
80412;SHT30;69749;42.684;23.360;2024-02-16T02:48:45;5.43;58.24
80412;SHT30;69749;42.684;23.360;2024-02-16T02:51:11;5.41;58.04
80412;SHT30;69749;42.684;23.360;2024-02-16T02:53:37;5.51;58.08
80412;SHT30;69749;42.684;23.360;2024-02-16T02:56:03;5.35;58.33
80412;SHT30;69749;42.684;23.360;2024-02-16T02:58:29;5.38;58.42
80412;SHT30;69749;42.684;23.360;2024-02-16T03:00:55;5.35;58.39
80412;SHT30;69749;42.684;23.360;2024-02-16T03:03:21;5.35;58.34
80412;SHT30;69749;42.684;23.360;2024-02-16T03:05:47;5.38;58.34
80412;SHT30;69749;42.684;23.360;2024-02-16T03:08:13;5.32;58.66
80412;SHT30;69749;42.684;23.360;2024-02-16T03:10:40;5.36;58.52
80412;SHT30;69749;42.684;23.360;2024-02-16T03:13:05;5.15;58.75
80412;SHT30;69749;42.684;23.360;2024-02-16T03:15:33;5.14;59.58
80412;SHT30;69749;42.684;23.360;2024-02-16T03:18:01;5.20;59.24
80412;SHT30;69749;42.684;23.360;2024-02-16T03:20:27;5.24;59.11
80412;SHT30;69749;42.684;23.360;2024-02-16T03:22:52;5.31;58.59
80412;SHT30;69749;42.684;23.360;2024-02-16T03:25:17;5.31;58.56
80412;SHT30;69749;42.684;23.360;2024-02-16T03:27:45;5.14;58.78
80412;SHT30;69749;42.684;23.360;2024-02-16T03:30:10;5.20;59.02
80412;SHT30;69749;42.684;23.360;2024-02-16T03:32:36;5.18;59.08
80412;SHT30;69749;42.684;23.360;2024-02-16T03:35:03;5.25;58.71
80412;SHT30;69749;42.684;23.360;2024-02-16T03:37:29;5.21;58.81
80412;SHT30;69749;42.684;23.360;2024-02-16T03:39:55;5.22;58.91
80412;SHT30;69749;42.684;23.360;2024-02-16T03:42:21;5.28;58.61
80412;SHT30;69749;42.684;23.360;2024-02-16T03:44:46;5.18;58.72
80412;SHT30;69749;42.684;23.360;2024-02-16T03:47:12;5.10;58.88
80412;SHT30;69749;42.684;23.360;2024-02-16T03:49:38;5.01;59.28
80412;SHT30;69749;42.684;23.360;2024-02-16T03:52:04;5.04;59.40
80412;SHT30;69749;42.684;23.360;2024-02-16T03:54:30;5.00;59.16
80412;SHT30;69749;42.684;23.360;2024-02-16T03:56:56;4.97;59.40
80412;SHT30;69749;42.684;23.360;2024-02-16T03:59:23;4.98;59.44
80412;SHT30;69749;42.684;23.360;2024-02-16T04:01:48;5.00;59.37
80412;SHT30;69749;42.684;23.360;2024-02-16T04:04:14;5.02;59.11
80412;SHT30;69749;42.684;23.360;2024-02-16T04:06:40;5.07;58.86
80412;SHT30;69749;42.684;23.360;2024-02-16T04:09:05;5.05;59.09
80412;SHT30;69749;42.684;23.360;2024-02-16T04:11:32;5.10;58.83
80412;SHT30;69749;42.684;23.360;2024-02-16T04:13:58;5.18;58.35
80412;SHT30;69749;42.684;23.360;2024-02-16T04:16:23;4.80;59.30
80412;SHT30;69749;42.684;23.360;2024-02-16T04:18:50;4.83;59.14
80412;SHT30;69749;42.684;23.360;2024-02-16T04:21:16;4.85;59.13
80412;SHT30;69749;42.684;23.360;2024-02-16T04:23:43;4.97;58.92
80412;SHT30;69749;42.684;23.360;2024-02-16T04:26:08;5.00;58.80
80412;SHT30;69749;42.684;23.360;2024-02-16T04:28:35;4.98;58.65
80412;SHT30;69749;42.684;23.360;2024-02-16T04:31:00;4.98;58.83
80412;SHT30;69749;42.684;23.360;2024-02-16T04:33:26;5.07;58.12
80412;SHT30;69749;42.684;23.360;2024-02-16T04:35:51;5.02;57.93
80412;SHT30;69749;42.684;23.360;2024-02-16T04:38:17;5.05;57.84
80412;SHT30;69749;42.684;23.360;2024-02-16T04:40:43;5.04;57.91
80412;SHT30;69749;42.684;23.360;2024-02-16T04:43:08;5.00;57.76
80412;SHT30;69749;42.684;23.360;2024-02-16T04:45:34;5.00;57.57
80412;SHT30;69749;42.684;23.360;2024-02-16T04:48:07;5.04;57.35
80412;SHT30;69749;42.684;23.360;2024-02-16T04:50:33;5.01;57.47
80412;SHT30;69749;42.684;23.360;2024-02-16T04:52:59;5.04;57.25
80412;SHT30;69749;42.684;23.360;2024-02-16T04:55:27;4.98;57.33
80412;SHT30;69749;42.684;23.360;2024-02-16T04:57:54;4.94;57.50
80412;SHT30;69749;42.684;23.360;2024-02-16T05:00:19;4.97;57.56
80412;SHT30;69749;42.684;23.360;2024-02-16T05:02:46;5.01;57.36
80412;SHT30;69749;42.684;23.360;2024-02-16T05:05:11;4.95;57.32
80412;SHT30;69749;42.684;23.360;2024-02-16T05:07:37;4.88;57.21
80412;SHT30;69749;42.684;23.360;2024-02-16T05:10:03;4.85;57.29
80412;SHT30;69749;42.684;23.360;2024-02-16T05:12:29;4.84;57.29
80412;SHT30;69749;42.684;23.360;2024-02-16T05:14:54;4.84;57.30
80412;SHT30;69749;42.684;23.360;2024-02-16T05:17:20;4.88;57.38
80412;SHT30;69749;42.684;23.360;2024-02-16T05:19:47;4.91;57.35
80412;SHT30;69749;42.684;23.360;2024-02-16T05:22:13;4.88;57.18
80412;SHT30;69749;42.684;23.360;2024-02-16T05:24:39;4.90;57.09
80412;SHT30;69749;42.684;23.360;2024-02-16T05:27:05;4.95;57.02
80412;SHT30;69749;42.684;23.360;2024-02-16T05:29:31;4.93;57.09
80412;SHT30;69749;42.684;23.360;2024-02-16T05:31:56;4.87;57.31
80412;SHT30;69749;42.684;23.360;2024-02-16T05:34:22;4.95;57.35
80412;SHT30;69749;42.684;23.360;2024-02-16T05:36:47;5.00;57.39
80412;SHT30;69749;42.684;23.360;2024-02-16T05:39:13;5.05;57.12
80412;SHT30;69749;42.684;23.360;2024-02-16T05:41:49;5.12;57.13
80412;SHT30;69749;42.684;23.360;2024-02-16T05:44:14;5.32;56.59
80412;SHT30;69749;42.684;23.360;2024-02-16T05:46:40;5.34;56.49
80412;SHT30;69749;42.684;23.360;2024-02-16T05:49:05;5.46;56.28
80412;SHT30;69749;42.684;23.360;2024-02-16T05:51:37;5.59;55.89
80412;SHT30;69749;42.684;23.360;2024-02-16T05:54:04;5.72;55.70
80412;SHT30;69749;42.684;23.360;2024-02-16T05:56:30;6.72;53.16
80412;SHT30;69749;42.684;23.360;2024-02-16T05:58:59;8.14;48.77
80412;SHT30;69749;42.684;23.360;2024-02-16T06:01:25;9.32;45.77
80412;SHT30;69749;42.684;23.360;2024-02-16T06:03:52;10.01;43.42
80412;SHT30;69749;42.684;23.360;2024-02-16T06:06:17;10.06;43.37
80412;SHT30;69749;42.684;23.360;2024-02-16T06:08:42;10.64;42.10
80412;SHT30;69749;42.684;23.360;2024-02-16T06:11:08;10.72;41.40
80412;SHT30;69749;42.684;23.360;2024-02-16T06:13:33;10.69;41.80
80412;SHT30;69749;42.684;23.360;2024-02-16T06:15:59;10.56;41.78
80412;SHT30;69749;42.684;23.360;2024-02-16T06:18:24;11.65;40.17
80412;SHT30;69749;42.684;23.360;2024-02-16T06:20:50;13.06;36.67
80412;SHT30;69749;42.684;23.360;2024-02-16T06:23:16;14.24;34.51
80412;SHT30;69749;42.684;23.360;2024-02-16T06:25:42;15.04;32.81
80412;SHT30;69749;42.684;23.360;2024-02-16T06:28:08;15.75;31.74
80412;SHT30;69749;42.684;23.360;2024-02-16T06:30:34;16.30;30.72
80412;SHT30;69749;42.684;23.360;2024-02-16T06:32:59;17.02;29.36
80412;SHT30;69749;42.684;23.360;2024-02-16T06:35:26;17.30;28.93
80412;SHT30;69749;42.684;23.360;2024-02-16T06:37:51;18.08;27.89
80412;SHT30;69749;42.684;23.360;2024-02-16T06:40:17;18.60;27.02
80412;SHT30;69749;42.684;23.360;2024-02-16T06:42:43;19.12;26.28
80412;SHT30;69749;42.684;23.360;2024-02-16T06:45:08;18.97;26.65
80412;SHT30;69749;42.684;23.360;2024-02-16T06:47:34;19.48;26.04
80412;SHT30;69749;42.684;23.360;2024-02-16T06:49:59;19.12;26.30
80412;SHT30;69749;42.684;23.360;2024-02-16T06:52:25;19.45;25.88
80412;SHT30;69749;42.684;23.360;2024-02-16T06:54:50;18.60;27.16
80412;SHT30;69749;42.684;23.360;2024-02-16T06:57:17;19.31;26.16
80412;SHT30;69749;42.684;23.360;2024-02-16T06:59:42;20.71;24.80
80412;SHT30;69749;42.684;23.360;2024-02-16T07:02:08;21.51;23.84
80412;SHT30;69749;42.684;23.360;2024-02-16T07:04:34;22.33;22.85
80412;SHT30;69749;42.684;23.360;2024-02-16T07:07:00;22.73;22.26
80412;SHT30;69749;42.684;23.360;2024-02-16T07:09:25;23.46;21.38
80412;SHT30;69749;42.684;23.360;2024-02-16T07:11:51;23.86;20.97
80412;SHT30;69749;42.684;23.360;2024-02-16T07:14:18;24.43;20.62
80412;SHT30;69749;42.684;23.360;2024-02-16T07:16:43;24.85;20.12
80412;SHT30;69749;42.684;23.360;2024-02-16T07:19:09;24.96;19.89
80412;SHT30;69749;42.684;23.360;2024-02-16T07:21:35;25.34;19.55
80412;SHT30;69749;42.684;23.360;2024-02-16T07:24:00;24.82;19.83
80412;SHT30;69749;42.684;23.360;2024-02-16T07:26:26;23.96;20.69
80412;SHT30;69749;42.684;23.360;2024-02-16T07:28:52;24.88;19.97
80412;SHT30;69749;42.684;23.360;2024-02-16T07:31:17;25.30;19.21
80412;SHT30;69749;42.684;23.360;2024-02-16T07:33:43;25.46;19.16
80412;SHT30;69749;42.684;23.360;2024-02-16T07:36:09;26.09;18.61
80412;SHT30;69749;42.684;23.360;2024-02-16T07:38:35;26.84;18.09
80412;SHT30;69749;42.684;23.360;2024-02-16T07:41:00;27.01;17.71
80412;SHT30;69749;42.684;23.360;2024-02-16T07:43:27;27.81;17.33
80412;SHT30;69749;42.684;23.360;2024-02-16T07:45:52;28.43;17.08
80412;SHT30;69749;42.684;23.360;2024-02-16T07:48:21;27.93;17.25
80412;SHT30;69749;42.684;23.360;2024-02-16T07:50:47;28.34;17.33
80412;SHT30;69749;42.684;23.360;2024-02-16T07:53:14;29.09;16.61
80412;SHT30;69749;42.684;23.360;2024-02-16T07:55:39;29.57;16.28
80412;SHT30;69749;42.684;23.360;2024-02-16T07:58:05;29.92;16.09
80412;SHT30;69749;42.684;23.360;2024-02-16T08:00:30;29.43;16.17
80412;SHT30;69749;42.684;23.360;2024-02-16T08:02:56;29.12;16.59
80412;SHT30;69749;42.684;23.360;2024-02-16T08:05:21;28.94;16.66
80412;SHT30;69749;42.684;23.360;2024-02-16T08:07:48;28.34;17.23
80412;SHT30;69749;42.684;23.360;2024-02-16T08:10:14;29.30;16.65
80412;SHT30;69749;42.684;23.360;2024-02-16T08:12:39;29.50;16.29
80412;SHT30;69749;42.684;23.360;2024-02-16T08:15:06;29.74;16.42
80412;SHT30;69749;42.684;23.360;2024-02-16T08:17:36;29.85;16.37
80412;SHT30;69749;42.684;23.360;2024-02-16T08:20:02;30.24;16.04
80412;SHT30;69749;42.684;23.360;2024-02-16T08:22:28;30.55;15.65
80412;SHT30;69749;42.684;23.360;2024-02-16T08:24:54;30.94;15.11
80412;SHT30;69749;42.684;23.360;2024-02-16T08:27:19;31.01;15.25
80412;SHT30;69749;42.684;23.360;2024-02-16T08:29:45;31.88;14.94
80412;SHT30;69749;42.684;23.360;2024-02-16T08:32:11;31.86;15.09
80412;SHT30;69749;42.684;23.360;2024-02-16T08:34:37;31.48;14.98
80412;SHT30;69749;42.684;23.360;2024-02-16T08:37:05;31.61;15.03
80412;SHT30;69749;42.684;23.360;2024-02-16T08:39:33;31.68;14.76
80412;SHT30;69749;42.684;23.360;2024-02-16T08:42:00;32.82;14.13
80412;SHT30;69749;42.684;23.360;2024-02-16T08:44:25;33.07;14.01
80412;SHT30;69749;42.684;23.360;2024-02-16T08:46:52;32.33;14.49
80412;SHT30;69749;42.684;23.360;2024-02-16T08:49:18;32.97;14.20
80412;SHT30;69749;42.684;23.360;2024-02-16T08:51:44;33.52;13.59
80412;SHT30;69749;42.684;23.360;2024-02-16T08:54:09;33.93;13.62
80412;SHT30;69749;42.684;23.360;2024-02-16T08:56:35;34.25;13.21
80412;SHT30;69749;42.684;23.360;2024-02-16T08:59:01;34.29;13.25
80412;SHT30;69749;42.684;23.360;2024-02-16T09:01:34;34.72;13.01
80412;SHT30;69749;42.684;23.360;2024-02-16T09:04:00;34.35;13.18
80412;SHT30;69749;42.684;23.360;2024-02-16T09:06:27;34.74;12.95
80412;SHT30;69749;42.684;23.360;2024-02-16T09:08:52;34.61;13.09
80412;SHT30;69749;42.684;23.360;2024-02-16T09:11:18;35.20;12.77
80412;SHT30;69749;42.684;23.360;2024-02-16T09:13:43;35.64;12.49
80412;SHT30;69749;42.684;23.360;2024-02-16T09:16:09;35.50;12.41
80412;SHT30;69749;42.684;23.360;2024-02-16T09:18:35;34.89;12.53
80412;SHT30;69749;42.684;23.360;2024-02-16T09:21:03;35.26;12.42
80412;SHT30;69749;42.684;23.360;2024-02-16T09:23:28;34.92;12.61
80412;SHT30;69749;42.684;23.360;2024-02-16T09:25:54;35.23;12.33
80412;SHT30;69749;42.684;23.360;2024-02-16T09:28:20;35.00;12.44
80412;SHT30;69749;42.684;23.360;2024-02-16T09:30:46;34.86;12.58
80412;SHT30;69749;42.684;23.360;2024-02-16T09:33:20;33.97;12.89
80412;SHT30;69749;42.684;23.360;2024-02-16T09:35:49;33.19;13.21
80412;SHT30;69749;42.684;23.360;2024-02-16T09:38:15;32.32;13.80
80412;SHT30;69749;42.684;23.360;2024-02-16T09:40:42;31.39;14.39
80412;SHT30;69749;42.684;23.360;2024-02-16T09:43:07;30.73;14.88
80412;SHT30;69749;42.684;23.360;2024-02-16T09:45:33;30.11;15.45
80412;SHT30;69749;42.684;23.360;2024-02-16T09:47:59;29.60;15.85
80412;SHT30;69749;42.684;23.360;2024-02-16T09:50:33;28.85;16.28
80412;SHT30;69749;42.684;23.360;2024-02-16T09:53:08;28.41;16.74
80412;SHT30;69749;42.684;23.360;2024-02-16T09:55:40;27.75;17.26
80412;SHT30;69749;42.684;23.360;2024-02-16T09:58:07;27.46;17.48
80412;SHT30;69749;42.684;23.360;2024-02-16T10:00:35;27.12;17.69
80412;SHT30;69749;42.684;23.360;2024-02-16T10:03:00;26.55;18.21
80412;SHT30;69749;42.684;23.360;2024-02-16T10:05:26;26.39;18.26
80412;SHT30;69749;42.684;23.360;2024-02-16T10:07:52;26.18;18.59
80412;SHT30;69749;42.684;23.360;2024-02-16T10:10:24;25.53;19.31
80412;SHT30;69749;42.684;23.360;2024-02-16T10:13:05;25.20;19.60
80412;SHT30;69749;42.684;23.360;2024-02-16T10:15:34;24.78;20.06
80412;SHT30;69749;42.684;23.360;2024-02-16T10:18:05;24.69;20.16
80412;SHT30;69749;42.684;23.360;2024-02-16T10:20:35;24.17;20.66
80412;SHT30;69749;42.684;23.360;2024-02-16T10:23:10;23.85;21.16
80412;SHT30;69749;42.684;23.360;2024-02-16T10:25:40;23.11;21.90
80412;SHT30;69749;42.684;23.360;2024-02-16T10:28:10;21.46;23.97
80412;SHT30;69749;42.684;23.360;2024-02-16T10:30:38;21.85;25.23
80412;SHT30;69749;42.684;23.360;2024-02-16T10:33:25;21.77;23.50
80412;SHT30;69749;42.684;23.360;2024-02-16T10:35:55;20.92;24.90
80412;SHT30;69749;42.684;23.360;2024-02-16T10:38:21;20.72;25.00
80412;SHT30;69749;42.684;23.360;2024-02-16T10:40:48;21.13;24.81
80412;SHT30;69749;42.684;23.360;2024-02-16T10:43:17;21.27;25.01
80412;SHT30;69749;42.684;23.360;2024-02-16T10:45:43;21.04;25.14
80412;SHT30;69749;42.684;23.360;2024-02-16T10:48:15;21.10;25.23
80412;SHT30;69749;42.684;23.360;2024-02-16T10:50:41;21.14;24.79
80412;SHT30;69749;42.684;23.360;2024-02-16T10:53:24;21.23;24.79
80412;SHT30;69749;42.684;23.360;2024-02-16T10:55:50;20.81;25.12
80412;SHT30;69749;42.684;23.360;2024-02-16T10:58:19;20.45;25.58
80412;SHT30;69749;42.684;23.360;2024-02-16T11:00:55;20.33;25.93
80412;SHT30;69749;42.684;23.360;2024-02-16T11:03:25;19.38;26.72
80412;SHT30;69749;42.684;23.360;2024-02-16T11:05:52;19.49;26.91
80412;SHT30;69749;42.684;23.360;2024-02-16T11:08:19;19.45;27.21
80412;SHT30;69749;42.684;23.360;2024-02-16T11:10:54;19.42;27.40
80412;SHT30;69749;42.684;23.360;2024-02-16T11:13:24;19.58;28.79
80412;SHT30;69749;42.684;23.360;2024-02-16T11:16:09;19.03;28.65
80412;SHT30;69749;42.684;23.360;2024-02-16T11:18:42;19.29;29.28
80412;SHT30;69749;42.684;23.360;2024-02-16T11:21:12;19.41;30.96
80412;SHT30;69749;42.684;23.360;2024-02-16T11:23:39;18.88;28.91
80412;SHT30;69749;42.684;23.360;2024-02-16T11:26:12;17.88;30.31
80412;SHT30;69749;42.684;23.360;2024-02-16T11:28:41;18.02;29.76
80412;SHT30;69749;42.684;23.360;2024-02-16T11:31:10;18.15;30.98
80412;SHT30;69749;42.684;23.360;2024-02-16T11:33:48;18.24;29.58
80412;SHT30;69749;42.684;23.360;2024-02-16T11:36:14;17.08;31.10
80412;SHT30;69749;42.684;23.360;2024-02-16T11:38:44;16.30;32.67
80412;SHT30;69749;42.684;23.360;2024-02-16T11:41:10;16.35;32.75
80412;SHT30;69749;42.684;23.360;2024-02-16T11:43:38;16.40;33.35
80412;SHT30;69749;42.684;23.360;2024-02-16T11:46:16;16.47;33.01
80412;SHT30;69749;42.684;23.360;2024-02-16T11:48:45;15.51;34.65
80412;SHT30;69749;42.684;23.360;2024-02-16T11:51:14;15.72;33.45
80412;SHT30;69749;42.684;23.360;2024-02-16T11:53:42;16.10;33.78
80412;SHT30;69749;42.684;23.360;2024-02-16T11:56:09;16.40;34.44
80412;SHT30;69749;42.684;23.360;2024-02-16T11:58:34;16.50;34.19
80412;SHT30;69749;42.684;23.360;2024-02-16T12:01:01;16.35;35.27
80412;SHT30;69749;42.684;23.360;2024-02-16T12:03:28;16.20;33.49
80412;SHT30;69749;42.684;23.360;2024-02-16T12:06:01;16.23;34.15
80412;SHT30;69749;42.684;23.360;2024-02-16T12:08:34;15.76;34.57
80412;SHT30;69749;42.684;23.360;2024-02-16T12:11:00;15.69;33.55
80412;SHT30;69749;42.684;23.360;2024-02-16T12:13:25;15.62;34.44
80412;SHT30;69749;42.684;23.360;2024-02-16T12:15:51;15.56;34.57
80412;SHT30;69749;42.684;23.360;2024-02-16T12:18:27;15.44;35.41
80412;SHT30;69749;42.684;23.360;2024-02-16T12:21:01;15.44;36.56
80412;SHT30;69749;42.684;23.360;2024-02-16T12:23:35;15.41;34.56
80412;SHT30;69749;42.684;23.360;2024-02-16T12:26:01;15.45;36.10
80412;SHT30;69749;42.684;23.360;2024-02-16T12:28:29;15.52;35.68
80412;SHT30;69749;42.684;23.360;2024-02-16T12:31:06;15.63;35.56
80412;SHT30;69749;42.684;23.360;2024-02-16T12:33:31;15.04;35.54
80412;SHT30;69749;42.684;23.360;2024-02-16T12:35:57;14.24;38.44
80412;SHT30;69749;42.684;23.360;2024-02-16T12:38:22;14.65;37.62
80412;SHT30;69749;42.684;23.360;2024-02-16T12:40:51;14.95;36.20
80412;SHT30;69749;42.684;23.360;2024-02-16T12:43:16;15.08;35.77
80412;SHT30;69749;42.684;23.360;2024-02-16T12:45:43;15.24;35.38
80412;SHT30;69749;42.684;23.360;2024-02-16T12:48:09;15.15;34.84
80412;SHT30;69749;42.684;23.360;2024-02-16T12:50:35;15.15;35.32
80412;SHT30;69749;42.684;23.360;2024-02-16T12:53:04;15.14;35.06
80412;SHT30;69749;42.684;23.360;2024-02-16T12:55:29;15.11;37.37
80412;SHT30;69749;42.684;23.360;2024-02-16T12:57:55;15.15;36.65
80412;SHT30;69749;42.684;23.360;2024-02-16T13:00:22;15.10;36.36
80412;SHT30;69749;42.684;23.360;2024-02-16T13:02:47;14.53;36.75
80412;SHT30;69749;42.684;23.360;2024-02-16T13:05:13;14.50;36.62
80412;SHT30;69749;42.684;23.360;2024-02-16T13:07:38;14.59;35.92
80412;SHT30;69749;42.684;23.360;2024-02-16T13:10:07;14.62;36.69
80412;SHT30;69749;42.684;23.360;2024-02-16T13:12:33;14.76;35.89
80412;SHT30;69749;42.684;23.360;2024-02-16T13:14:58;14.81;37.35
80412;SHT30;69749;42.684;23.360;2024-02-16T13:17:24;14.81;36.76
80412;SHT30;69749;42.684;23.360;2024-02-16T13:19:51;14.79;36.65
80412;SHT30;69749;42.684;23.360;2024-02-16T13:22:17;14.74;37.52
80412;SHT30;69749;42.684;23.360;2024-02-16T13:24:43;14.90;37.01
80412;SHT30;69749;42.684;23.360;2024-02-16T13:27:08;14.93;38.46
80412;SHT30;69749;42.684;23.360;2024-02-16T13:29:34;14.95;37.14
80412;SHT30;69749;42.684;23.360;2024-02-16T13:32:00;15.04;36.65
80412;SHT30;69749;42.684;23.360;2024-02-16T13:34:26;15.05;37.63
80412;SHT30;69749;42.684;23.360;2024-02-16T13:36:52;15.08;38.29
80412;SHT30;69749;42.684;23.360;2024-02-16T13:39:18;14.52;38.26
80412;SHT30;69749;42.684;23.360;2024-02-16T13:41:45;14.19;37.73
80412;SHT30;69749;42.684;23.360;2024-02-16T13:44:12;14.30;38.60
80412;SHT30;69749;42.684;23.360;2024-02-16T13:46:38;14.46;37.51
80412;SHT30;69749;42.684;23.360;2024-02-16T13:49:03;14.46;38.07
80412;SHT30;69749;42.684;23.360;2024-02-16T13:51:29;14.45;37.98
80412;SHT30;69749;42.684;23.360;2024-02-16T13:53:54;14.09;38.45
80412;SHT30;69749;42.684;23.360;2024-02-16T13:56:20;14.19;39.56
80412;SHT30;69749;42.684;23.360;2024-02-16T13:58:45;14.21;38.55
80412;SHT30;69749;42.684;23.360;2024-02-16T14:01:15;14.22;38.42
80412;SHT30;69749;42.684;23.360;2024-02-16T14:03:41;14.07;38.57
80412;SHT30;69749;42.684;23.360;2024-02-16T14:06:07;13.43;39.97
80412;SHT30;69749;42.684;23.360;2024-02-16T14:08:35;13.26;40.98
80412;SHT30;69749;42.684;23.360;2024-02-16T14:11:01;13.33;40.50
80412;SHT30;69749;42.684;23.360;2024-02-16T14:13:27;13.49;40.73
80412;SHT30;69749;42.684;23.360;2024-02-16T14:15:52;13.50;40.25
80412;SHT30;69749;42.684;23.360;2024-02-16T14:18:18;13.46;39.80
80412;SHT30;69749;42.684;23.360;2024-02-16T14:20:43;13.68;41.33
80412;SHT30;69749;42.684;23.360;2024-02-16T14:23:09;13.88;40.47
80412;SHT30;69749;42.684;23.360;2024-02-16T14:25:35;13.97;39.52
80412;SHT30;69749;42.684;23.360;2024-02-16T14:28:06;14.05;39.85
80412;SHT30;69749;42.684;23.360;2024-02-16T14:30:32;14.14;39.76
80412;SHT30;69749;42.684;23.360;2024-02-16T14:32:58;13.97;38.91
80412;SHT30;69749;42.684;23.360;2024-02-16T14:35:24;13.70;40.26
80412;SHT30;69749;42.684;23.360;2024-02-16T14:37:49;13.82;39.42
80412;SHT30;69749;42.684;23.360;2024-02-16T14:40:18;13.91;39.08
80412;SHT30;69749;42.684;23.360;2024-02-16T14:42:46;13.94;39.46
80412;SHT30;69749;42.684;23.360;2024-02-16T14:45:11;14.00;40.28
80412;SHT30;69749;42.684;23.360;2024-02-16T14:47:45;14.14;41.05
80412;SHT30;69749;42.684;23.360;2024-02-16T14:50:13;14.09;40.90
80412;SHT30;69749;42.684;23.360;2024-02-16T14:52:40;14.16;40.34
80412;SHT30;69749;42.684;23.360;2024-02-16T14:55:06;14.24;41.11
80412;SHT30;69749;42.684;23.360;2024-02-16T14:57:38;14.26;39.98
80412;SHT30;69749;42.684;23.360;2024-02-16T15:00:06;14.30;40.78
80412;SHT30;69749;42.684;23.360;2024-02-16T15:02:32;14.32;40.49
80412;SHT30;69749;42.684;23.360;2024-02-16T15:04:57;14.35;41.26
80412;SHT30;69749;42.684;23.360;2024-02-16T15:07:23;14.39;40.63
80412;SHT30;69749;42.684;23.360;2024-02-16T15:09:48;14.43;40.59
80412;SHT30;69749;42.684;23.360;2024-02-16T15:12:14;14.43;40.30
80412;SHT30;69749;42.684;23.360;2024-02-16T15:14:47;14.40;40.02
80412;SHT30;69749;42.684;23.360;2024-02-16T15:17:15;14.43;40.02
80412;SHT30;69749;42.684;23.360;2024-02-16T15:19:41;14.43;39.89